sensor_id;sensor_type;location;lat;lon;timestamp;P1;P2;P0
76049;PMS7003;64967;50.234;19.224;2023-05-20T00:02:13;13.00;13.00;8.00
76049;PMS7003;64967;50.234;19.224;2023-05-20T00:04:43;14.50;12.50;9.00
76049;PMS7003;64967;50.234;19.224;2023-05-20T00:07:18;20.00;19.00;13.50
76049;PMS7003;64967;50.234;19.224;2023-05-20T00:10:08;29.75;26.25;15.50
76049;PMS7003;64967;50.234;19.224;2023-05-20T00:12:50;25.25;21.75;14.00
76049;PMS7003;64967;50.234;19.224;2023-05-20T00:15:34;16.75;13.00;9.00
76049;PMS7003;64967;50.234;19.224;2023-05-20T00:18:04;19.75;15.75;12.00
76049;PMS7003;64967;50.234;19.224;2023-05-20T00:20:31;21.50;19.00;12.50
76049;PMS7003;64967;50.234;19.224;2023-05-20T00:22:58;21.50;18.00;12.50
76049;PMS7003;64967;50.234;19.224;2023-05-20T00:25:25;23.50;18.75;12.00
76049;PMS7003;64967;50.234;19.224;2023-05-20T00:27:52;20.75;18.25;12.00
76049;PMS7003;64967;50.234;19.224;2023-05-20T00:30:19;13.25;12.25;7.25
76049;PMS7003;64967;50.234;19.224;2023-05-20T00:32:47;21.50;20.50;13.00
76049;PMS7003;64967;50.234;19.224;2023-05-20T00:35:14;24.75;21.75;13.00
76049;PMS7003;64967;50.234;19.224;2023-05-20T00:37:41;18.75;14.00;9.00
76049;PMS7003;64967;50.234;19.224;2023-05-20T00:40:08;20.25;14.75;10.50
76049;PMS7003;64967;50.234;19.224;2023-05-20T00:42:38;17.75;15.00;10.50
76049;PMS7003;64967;50.234;19.224;2023-05-20T00:45:05;22.75;17.00;11.75
76049;PMS7003;64967;50.234;19.224;2023-05-20T00:47:33;16.25;14.50;10.00
76049;PMS7003;64967;50.234;19.224;2023-05-20T00:50:02;23.00;21.00;14.00
76049;PMS7003;64967;50.234;19.224;2023-05-20T00:52:30;25.00;21.00;12.50
76049;PMS7003;64967;50.234;19.224;2023-05-20T00:54:58;19.25;17.25;11.00
76049;PMS7003;64967;50.234;19.224;2023-05-20T00:57:25;24.75;16.50;11.25
76049;PMS7003;64967;50.234;19.224;2023-05-20T00:59:53;18.50;16.00;11.00
76049;PMS7003;64967;50.234;19.224;2023-05-20T01:02:20;29.50;26.00;14.25
76049;PMS7003;64967;50.234;19.224;2023-05-20T01:04:47;18.25;14.75;11.25
76049;PMS7003;64967;50.234;19.224;2023-05-20T01:07:18;15.00;13.50;9.75
76049;PMS7003;64967;50.234;19.224;2023-05-20T01:10:06;25.50;20.75;13.00
76049;PMS7003;64967;50.234;19.224;2023-05-20T01:12:54;28.25;23.00;15.25
76049;PMS7003;64967;50.234;19.224;2023-05-20T01:15:39;15.50;9.25;2.00
76049;PMS7003;64967;50.234;19.224;2023-05-20T01:18:35;22.50;19.00;12.00
76049;PMS7003;64967;50.234;19.224;2023-05-20T01:21:20;27.75;25.00;15.00
76049;PMS7003;64967;50.234;19.224;2023-05-20T01:23:50;20.50;18.00;11.75
76049;PMS7003;64967;50.234;19.224;2023-05-20T01:26:17;24.50;21.00;11.50
76049;PMS7003;64967;50.234;19.224;2023-05-20T01:28:45;27.50;25.50;13.00
76049;PMS7003;64967;50.234;19.224;2023-05-20T01:31:22;20.00;18.00;12.00
76049;PMS7003;64967;50.234;19.224;2023-05-20T01:33:54;27.25;23.75;13.75
76049;PMS7003;64967;50.234;19.224;2023-05-20T01:36:23;27.75;22.00;13.75
76049;PMS7003;64967;50.234;19.224;2023-05-20T01:38:53;22.25;20.00;14.00
76049;PMS7003;64967;50.234;19.224;2023-05-20T01:41:21;18.75;16.25;11.75
76049;PMS7003;64967;50.234;19.224;2023-05-20T01:43:52;26.00;21.25;13.25
76049;PMS7003;64967;50.234;19.224;2023-05-20T01:46:21;17.25;14.50;11.00
76049;PMS7003;64967;50.234;19.224;2023-05-20T01:48:48;16.50;13.00;8.00
76049;PMS7003;64967;50.234;19.224;2023-05-20T01:51:15;14.75;12.50;8.50
76049;PMS7003;64967;50.234;19.224;2023-05-20T01:53:43;12.75;11.75;8.75
76049;PMS7003;64967;50.234;19.224;2023-05-20T01:56:10;11.50;11.00;7.00
76049;PMS7003;64967;50.234;19.224;2023-05-20T01:58:37;13.00;12.00;7.25
76049;PMS7003;64967;50.234;19.224;2023-05-20T02:01:04;13.00;11.50;8.50
76049;PMS7003;64967;50.234;19.224;2023-05-20T02:03:31;11.75;10.25;6.00
76049;PMS7003;64967;50.234;19.224;2023-05-20T02:05:58;8.75;8.00;4.00
76049;PMS7003;64967;50.234;19.224;2023-05-20T02:08:25;23.50;14.00;10.00
76049;PMS7003;64967;50.234;19.224;2023-05-20T02:10:52;14.00;13.00;9.75
76049;PMS7003;64967;50.234;19.224;2023-05-20T02:13:19;13.50;11.00;8.75
76049;PMS7003;64967;50.234;19.224;2023-05-20T02:15:46;10.75;10.75;9.00
76049;PMS7003;64967;50.234;19.224;2023-05-20T02:18:13;14.25;13.00;8.50
76049;PMS7003;64967;50.234;19.224;2023-05-20T02:20:44;10.50;8.50;6.25
76049;PMS7003;64967;50.234;19.224;2023-05-20T02:23:11;10.00;9.00;5.25
76049;PMS7003;64967;50.234;19.224;2023-05-20T02:25:39;9.75;8.50;5.75
76049;PMS7003;64967;50.234;19.224;2023-05-20T02:28:06;9.00;7.25;6.00
76049;PMS7003;64967;50.234;19.224;2023-05-20T02:30:39;5.00;4.00;3.00
76049;PMS7003;64967;50.234;19.224;2023-05-20T02:33:06;13.00;10.00;6.00
76049;PMS7003;64967;50.234;19.224;2023-05-20T02:35:35;5.50;4.25;3.75
76049;PMS7003;64967;50.234;19.224;2023-05-20T02:38:02;10.75;9.75;6.75
76049;PMS7003;64967;50.234;19.224;2023-05-20T02:40:29;10.00;10.00;6.75
76049;PMS7003;64967;50.234;19.224;2023-05-20T02:42:56;8.00;7.00;5.25
76049;PMS7003;64967;50.234;19.224;2023-05-20T02:45:23;4.75;4.75;4.00
76049;PMS7003;64967;50.234;19.224;2023-05-20T02:47:50;9.50;8.00;5.00
76049;PMS7003;64967;50.234;19.224;2023-05-20T02:50:17;11.75;10.00;6.00
76049;PMS7003;64967;50.234;19.224;2023-05-20T02:52:44;6.75;6.00;5.00
76049;PMS7003;64967;50.234;19.224;2023-05-20T02:55:12;7.75;7.75;6.00
76049;PMS7003;64967;50.234;19.224;2023-05-20T02:57:40;16.25;12.00;7.00
76049;PMS7003;64967;50.234;19.224;2023-05-20T03:00:07;14.00;12.00;8.25
76049;PMS7003;64967;50.234;19.224;2023-05-20T03:02:38;12.00;9.25;6.00
76049;PMS7003;64967;50.234;19.224;2023-05-20T03:05:06;10.00;9.50;5.00
76049;PMS7003;64967;50.234;19.224;2023-05-20T03:07:33;4.50;4.00;3.50
76049;PMS7003;64967;50.234;19.224;2023-05-20T03:10:02;10.50;8.25;6.00
76049;PMS7003;64967;50.234;19.224;2023-05-20T03:12:30;11.25;10.00;7.25
76049;PMS7003;64967;50.234;19.224;2023-05-20T03:14:57;9.00;8.25;5.50
76049;PMS7003;64967;50.234;19.224;2023-05-20T03:17:25;8.75;7.75;6.00
76049;PMS7003;64967;50.234;19.224;2023-05-20T03:19:52;8.50;5.50;4.00
76049;PMS7003;64967;50.234;19.224;2023-05-20T03:22:20;11.00;8.75;6.00
76049;PMS7003;64967;50.234;19.224;2023-05-20T03:24:47;9.00;8.00;6.00
76049;PMS7003;64967;50.234;19.224;2023-05-20T03:27:14;9.75;9.50;6.00
76049;PMS7003;64967;50.234;19.224;2023-05-20T03:29:41;5.00;5.00;3.75
76049;PMS7003;64967;50.234;19.224;2023-05-20T03:32:08;7.00;6.75;5.00
76049;PMS7003;64967;50.234;19.224;2023-05-20T03:34:36;7.00;5.00;4.00
76049;PMS7003;64967;50.234;19.224;2023-05-20T03:37:03;5.50;4.00;3.00
76049;PMS7003;64967;50.234;19.224;2023-05-20T03:39:31;4.50;4.00;3.00
76049;PMS7003;64967;50.234;19.224;2023-05-20T03:41:57;9.75;8.25;6.75
76049;PMS7003;64967;50.234;19.224;2023-05-20T03:44:24;12.25;11.00;7.50
76049;PMS7003;64967;50.234;19.224;2023-05-20T03:46:52;14.00;11.50;7.25
76049;PMS7003;64967;50.234;19.224;2023-05-20T03:49:19;7.00;6.25;4.50
76049;PMS7003;64967;50.234;19.224;2023-05-20T03:51:46;13.25;12.25;8.75
76049;PMS7003;64967;50.234;19.224;2023-05-20T03:54:13;10.75;9.00;6.25
76049;PMS7003;64967;50.234;19.224;2023-05-20T03:56:42;7.75;6.25;5.00
76049;PMS7003;64967;50.234;19.224;2023-05-20T03:59:09;10.50;9.25;7.00
76049;PMS7003;64967;50.234;19.224;2023-05-20T04:01:36;9.50;7.75;5.50
76049;PMS7003;64967;50.234;19.224;2023-05-20T04:04:03;7.25;5.75;4.50
76049;PMS7003;64967;50.234;19.224;2023-05-20T04:06:30;9.00;6.25;4.75
76049;PMS7003;64967;50.234;19.224;2023-05-20T04:08:58;6.50;6.00;3.25
76049;PMS7003;64967;50.234;19.224;2023-05-20T04:11:25;9.50;8.25;6.25
76049;PMS7003;64967;50.234;19.224;2023-05-20T04:13:52;8.00;8.00;5.00
76049;PMS7003;64967;50.234;19.224;2023-05-20T04:16:20;8.75;7.25;5.00
76049;PMS7003;64967;50.234;19.224;2023-05-20T04:18:47;6.75;6.00;4.25
76049;PMS7003;64967;50.234;19.224;2023-05-20T04:21:14;12.25;10.00;6.00
76049;PMS7003;64967;50.234;19.224;2023-05-20T04:23:41;10.00;7.25;5.25
76049;PMS7003;64967;50.234;19.224;2023-05-20T04:26:08;12.00;8.00;6.00
76049;PMS7003;64967;50.234;19.224;2023-05-20T04:28:35;8.00;7.00;6.00
76049;PMS7003;64967;50.234;19.224;2023-05-20T04:31:03;8.75;8.00;5.50
76049;PMS7003;64967;50.234;19.224;2023-05-20T04:36:34;9.25;9.00;6.00
76049;PMS7003;64967;50.234;19.224;2023-05-20T04:39:03;7.75;6.00;6.00
76049;PMS7003;64967;50.234;19.224;2023-05-20T04:41:30;5.00;5.00;4.00
76049;PMS7003;64967;50.234;19.224;2023-05-20T04:43:57;2.75;2.75;2.50
76049;PMS7003;64967;50.234;19.224;2023-05-20T04:46:26;6.00;4.25;3.00
76049;PMS7003;64967;50.234;19.224;2023-05-20T04:48:53;6.25;6.25;4.75
76049;PMS7003;64967;50.234;19.224;2023-05-20T04:51:20;5.00;4.00;3.00
76049;PMS7003;64967;50.234;19.224;2023-05-20T04:53:47;5.25;5.25;4.50
76049;PMS7003;64967;50.234;19.224;2023-05-20T04:56:16;4.50;4.00;4.00
76049;PMS7003;64967;50.234;19.224;2023-05-20T04:58:43;5.00;4.00;3.50
76049;PMS7003;64967;50.234;19.224;2023-05-20T05:01:10;7.75;6.50;4.25
76049;PMS7003;64967;50.234;19.224;2023-05-20T05:03:37;5.25;4.50;4.00
76049;PMS7003;64967;50.234;19.224;2023-05-20T05:06:04;4.25;3.00;2.75
76049;PMS7003;64967;50.234;19.224;2023-05-20T05:08:31;6.00;5.25;3.00
76049;PMS7003;64967;50.234;19.224;2023-05-20T05:10:58;4.75;3.00;3.00
76049;PMS7003;64967;50.234;19.224;2023-05-20T05:13:25;7.00;6.50;5.00
76049;PMS7003;64967;50.234;19.224;2023-05-20T05:15:58;10.25;7.75;5.00
76049;PMS7003;64967;50.234;19.224;2023-05-20T05:18:26;10.50;7.00;5.75
76049;PMS7003;64967;50.234;19.224;2023-05-20T05:20:59;12.25;10.25;7.00
76049;PMS7003;64967;50.234;19.224;2023-05-20T05:23:30;7.25;6.75;5.00
76049;PMS7003;64967;50.234;19.224;2023-05-20T05:25:58;9.75;7.75;6.00
76049;PMS7003;64967;50.234;19.224;2023-05-20T05:28:25;8.00;7.75;6.00
76049;PMS7003;64967;50.234;19.224;2023-05-20T05:30:55;13.00;11.00;7.00
76049;PMS7003;64967;50.234;19.224;2023-05-20T05:33:23;14.50;10.50;6.50
76049;PMS7003;64967;50.234;19.224;2023-05-20T05:35:50;10.00;8.50;7.00
76049;PMS7003;64967;50.234;19.224;2023-05-20T05:38:16;10.00;10.00;7.00
76049;PMS7003;64967;50.234;19.224;2023-05-20T05:40:44;8.50;8.50;7.50
76049;PMS7003;64967;50.234;19.224;2023-05-20T05:43:11;14.25;12.25;8.00
76049;PMS7003;64967;50.234;19.224;2023-05-20T05:45:38;7.75;7.75;6.00
76049;PMS7003;64967;50.234;19.224;2023-05-20T05:48:05;8.00;8.00;6.00
76049;PMS7003;64967;50.234;19.224;2023-05-20T05:50:32;13.25;13.00;10.25
76049;PMS7003;64967;50.234;19.224;2023-05-20T05:52:59;12.50;11.00;7.00
76049;PMS7003;64967;50.234;19.224;2023-05-20T05:55:26;7.00;7.00;6.25
76049;PMS7003;64967;50.234;19.224;2023-05-20T05:57:53;9.50;7.00;6.00
76049;PMS7003;64967;50.234;19.224;2023-05-20T06:00:20;11.75;9.75;8.00
76049;PMS7003;64967;50.234;19.224;2023-05-20T06:02:47;10.75;10.00;7.00
76049;PMS7003;64967;50.234;19.224;2023-05-20T06:05:15;7.50;7.50;6.00
76049;PMS7003;64967;50.234;19.224;2023-05-20T06:07:42;10.50;9.75;8.00
76049;PMS7003;64967;50.234;19.224;2023-05-20T06:10:09;8.25;8.00;6.75
76049;PMS7003;64967;50.234;19.224;2023-05-20T06:12:36;8.75;8.25;6.00
76049;PMS7003;64967;50.234;19.224;2023-05-20T06:15:03;11.50;10.50;8.00
76049;PMS7003;64967;50.234;19.224;2023-05-20T06:17:30;16.00;13.75;8.00
76049;PMS7003;64967;50.234;19.224;2023-05-20T06:19:57;7.50;6.00;5.25
76049;PMS7003;64967;50.234;19.224;2023-05-20T06:22:25;12.50;9.75;7.75
76049;PMS7003;64967;50.234;19.224;2023-05-20T06:24:52;9.50;9.25;8.00
76049;PMS7003;64967;50.234;19.224;2023-05-20T06:27:22;11.00;10.75;8.00
76049;PMS7003;64967;50.234;19.224;2023-05-20T06:29:49;15.00;14.00;10.00
76049;PMS7003;64967;50.234;19.224;2023-05-20T06:32:16;13.75;12.25;9.50
76049;PMS7003;64967;50.234;19.224;2023-05-20T06:34:43;8.75;8.50;7.50
76049;PMS7003;64967;50.234;19.224;2023-05-20T06:37:11;14.50;11.25;9.00
76049;PMS7003;64967;50.234;19.224;2023-05-20T06:39:38;9.25;9.25;7.25
76049;PMS7003;64967;50.234;19.224;2023-05-20T06:42:05;17.00;14.00;10.25
76049;PMS7003;64967;50.234;19.224;2023-05-20T06:44:32;12.00;10.75;8.50
76049;PMS7003;64967;50.234;19.224;2023-05-20T06:46:59;14.50;13.00;9.75
76049;PMS7003;64967;50.234;19.224;2023-05-20T06:49:27;14.75;13.00;9.00
76049;PMS7003;64967;50.234;19.224;2023-05-20T06:51:54;11.00;9.75;7.75
76049;PMS7003;64967;50.234;19.224;2023-05-20T06:54:21;14.00;11.25;8.25
76049;PMS7003;64967;50.234;19.224;2023-05-20T06:56:48;19.75;17.75;13.50
76049;PMS7003;64967;50.234;19.224;2023-05-20T06:59:15;16.00;15.00;8.75
76049;PMS7003;64967;50.234;19.224;2023-05-20T07:01:42;12.75;10.50;8.25
76049;PMS7003;64967;50.234;19.224;2023-05-20T07:04:09;12.50;12.50;9.25
76049;PMS7003;64967;50.234;19.224;2023-05-20T07:06:36;12.00;11.50;9.00
76049;PMS7003;64967;50.234;19.224;2023-05-20T07:09:03;18.00;15.00;9.25
76049;PMS7003;64967;50.234;19.224;2023-05-20T07:11:30;13.25;12.75;9.00
76049;PMS7003;64967;50.234;19.224;2023-05-20T07:13:57;9.75;9.50;8.00
76049;PMS7003;64967;50.234;19.224;2023-05-20T07:16:24;12.75;11.25;8.00
76049;PMS7003;64967;50.234;19.224;2023-05-20T07:18:51;8.75;7.75;6.25
76049;PMS7003;64967;50.234;19.224;2023-05-20T07:21:18;18.00;15.25;9.75
76049;PMS7003;64967;50.234;19.224;2023-05-20T07:23:45;19.00;17.25;11.75
76049;PMS7003;64967;50.234;19.224;2023-05-20T07:26:12;11.25;10.00;7.75
76049;PMS7003;64967;50.234;19.224;2023-05-20T07:28:39;19.75;15.50;10.00
76049;PMS7003;64967;50.234;19.224;2023-05-20T07:31:06;15.50;15.00;11.75
76049;PMS7003;64967;50.234;19.224;2023-05-20T07:33:33;19.00;13.50;10.00
76049;PMS7003;64967;50.234;19.224;2023-05-20T07:36:00;11.50;10.00;8.00
76049;PMS7003;64967;50.234;19.224;2023-05-20T07:38:27;7.75;7.50;6.00
76049;PMS7003;64967;50.234;19.224;2023-05-20T07:40:54;10.75;9.25;8.00
76049;PMS7003;64967;50.234;19.224;2023-05-20T07:43:21;14.25;12.25;10.00
76049;PMS7003;64967;50.234;19.224;2023-05-20T07:45:48;13.00;12.00;9.00
76049;PMS7003;64967;50.234;19.224;2023-05-20T07:48:16;14.00;13.00;9.25
76049;PMS7003;64967;50.234;19.224;2023-05-20T07:50:43;12.25;10.75;8.25
76049;PMS7003;64967;50.234;19.224;2023-05-20T07:53:10;10.75;10.75;8.50
76049;PMS7003;64967;50.234;19.224;2023-05-20T07:55:37;13.25;13.00;10.50
76049;PMS7003;64967;50.234;19.224;2023-05-20T07:58:04;19.25;17.50;13.25
76049;PMS7003;64967;50.234;19.224;2023-05-20T08:00:31;11.75;11.50;9.00
76049;PMS7003;64967;50.234;19.224;2023-05-20T08:02:58;11.25;11.00;8.00
76049;PMS7003;64967;50.234;19.224;2023-05-20T08:05:26;9.25;9.00;6.00
76049;PMS7003;64967;50.234;19.224;2023-05-20T08:07:53;12.75;11.50;8.00
76049;PMS7003;64967;50.234;19.224;2023-05-20T08:10:20;13.50;11.75;8.00
76049;PMS7003;64967;50.234;19.224;2023-05-20T08:12:47;6.75;6.25;3.75
76049;PMS7003;64967;50.234;19.224;2023-05-20T08:15:14;22.00;18.75;12.75
76049;PMS7003;64967;50.234;19.224;2023-05-20T08:17:41;17.25;16.50;12.50
76049;PMS7003;64967;50.234;19.224;2023-05-20T08:20:08;19.75;18.50;13.50
76049;PMS7003;64967;50.234;19.224;2023-05-20T08:22:36;21.50;21.00;16.00
76049;PMS7003;64967;50.234;19.224;2023-05-20T08:25:03;16.00;15.75;12.75
76049;PMS7003;64967;50.234;19.224;2023-05-20T08:27:33;14.00;13.00;9.75
76049;PMS7003;64967;50.234;19.224;2023-05-20T08:30:02;13.75;11.75;9.50
76049;PMS7003;64967;50.234;19.224;2023-05-20T08:32:30;15.50;13.75;10.00
76049;PMS7003;64967;50.234;19.224;2023-05-20T08:34:57;13.50;12.50;10.25
76049;PMS7003;64967;50.234;19.224;2023-05-20T08:37:27;14.25;11.75;9.00
76049;PMS7003;64967;50.234;19.224;2023-05-20T08:39:54;13.00;12.00;8.25
76049;PMS7003;64967;50.234;19.224;2023-05-20T08:42:22;13.25;12.75;9.75
76049;PMS7003;64967;50.234;19.224;2023-05-20T08:44:53;13.50;11.25;8.00
76049;PMS7003;64967;50.234;19.224;2023-05-20T08:47:21;23.50;20.75;16.00
76049;PMS7003;64967;50.234;19.224;2023-05-20T08:49:48;18.00;17.00;14.00
76049;PMS7003;64967;50.234;19.224;2023-05-20T08:52:16;23.25;20.25;14.75
76049;PMS7003;64967;50.234;19.224;2023-05-20T08:54:47;14.75;13.00;10.00
76049;PMS7003;64967;50.234;19.224;2023-05-20T08:57:15;12.25;12.00;9.00
76049;PMS7003;64967;50.234;19.224;2023-05-20T08:59:42;15.00;14.33;11.33
76049;PMS7003;64967;50.234;19.224;2023-05-20T09:02:11;17.00;15.25;12.00
76049;PMS7003;64967;50.234;19.224;2023-05-20T09:04:38;20.75;20.00;14.00
76049;PMS7003;64967;50.234;19.224;2023-05-20T09:07:05;20.25;20.25;15.50
76049;PMS7003;64967;50.234;19.224;2023-05-20T09:09:33;18.25;16.75;12.00
76049;PMS7003;64967;50.234;19.224;2023-05-20T09:12:01;20.50;19.00;14.25
76049;PMS7003;64967;50.234;19.224;2023-05-20T09:14:29;19.00;17.25;12.25
76049;PMS7003;64967;50.234;19.224;2023-05-20T09:16:57;18.75;16.50;13.50
76049;PMS7003;64967;50.234;19.224;2023-05-20T09:19:25;18.25;17.25;13.25
76049;PMS7003;64967;50.234;19.224;2023-05-20T09:21:52;19.25;17.50;12.00
76049;PMS7003;64967;50.234;19.224;2023-05-20T09:24:24;13.75;13.00;8.75
76049;PMS7003;64967;50.234;19.224;2023-05-20T09:26:52;21.25;20.00;15.75
76049;PMS7003;64967;50.234;19.224;2023-05-20T09:29:19;19.75;18.00;13.25
76049;PMS7003;64967;50.234;19.224;2023-05-20T09:31:47;23.50;21.50;16.50
76049;PMS7003;64967;50.234;19.224;2023-05-20T09:34:15;15.33;15.00;10.33
76049;PMS7003;64967;50.234;19.224;2023-05-20T09:36:43;17.50;15.50;11.75
76049;PMS7003;64967;50.234;19.224;2023-05-20T09:39:14;19.25;16.50;13.50
76049;PMS7003;64967;50.234;19.224;2023-05-20T09:41:54;16.00;15.00;12.33
76049;PMS7003;64967;50.234;19.224;2023-05-20T09:44:29;12.75;12.25;10.50
76049;PMS7003;64967;50.234;19.224;2023-05-20T09:46:57;16.00;15.00;12.00
76049;PMS7003;64967;50.234;19.224;2023-05-20T09:49:27;22.00;20.25;16.00
76049;PMS7003;64967;50.234;19.224;2023-05-20T09:51:57;17.50;17.25;13.00
76049;PMS7003;64967;50.234;19.224;2023-05-20T09:54:25;18.50;17.00;13.00
76049;PMS7003;64967;50.234;19.224;2023-05-20T09:56:54;20.25;19.00;14.25
76049;PMS7003;64967;50.234;19.224;2023-05-20T09:59:22;20.00;18.25;14.25
76049;PMS7003;64967;50.234;19.224;2023-05-20T10:01:50;24.25;22.25;18.25
76049;PMS7003;64967;50.234;19.224;2023-05-20T10:04:17;18.50;18.00;14.00
76049;PMS7003;64967;50.234;19.224;2023-05-20T10:09:49;24.75;23.25;15.75
76049;PMS7003;64967;50.234;19.224;2023-05-20T10:12:26;17.67;17.33;12.67
76049;PMS7003;64967;50.234;19.224;2023-05-20T10:15:23;16.00;16.00;13.00
76049;PMS7003;64967;50.234;19.224;2023-05-20T10:17:57;19.67;18.00;14.67
76049;PMS7003;64967;50.234;19.224;2023-05-20T10:20:28;21.50;20.00;15.00
76049;PMS7003;64967;50.234;19.224;2023-05-20T10:22:56;20.50;18.00;12.75
76049;PMS7003;64967;50.234;19.224;2023-05-20T10:25:25;24.00;23.00;17.00
76049;PMS7003;64967;50.234;19.224;2023-05-20T10:28:03;21.25;19.25;15.00
76049;PMS7003;64967;50.234;19.224;2023-05-20T10:30:33;25.00;24.00;17.00
76049;PMS7003;64967;50.234;19.224;2023-05-20T10:33:02;26.25;22.25;16.00
76049;PMS7003;64967;50.234;19.224;2023-05-20T10:35:31;27.50;24.00;18.00
76049;PMS7003;64967;50.234;19.224;2023-05-20T10:38:09;26.75;24.00;17.25
76049;PMS7003;64967;50.234;19.224;2023-05-20T10:40:37;26.00;23.50;17.50
76049;PMS7003;64967;50.234;19.224;2023-05-20T10:43:14;23.25;22.50;17.00
76049;PMS7003;64967;50.234;19.224;2023-05-20T10:45:54;16.00;15.25;13.50
76049;PMS7003;64967;50.234;19.224;2023-05-20T10:48:23;20.50;18.25;14.25
76049;PMS7003;64967;50.234;19.224;2023-05-20T10:50:53;23.25;21.75;16.50
76049;PMS7003;64967;50.234;19.224;2023-05-20T10:53:25;23.75;21.50;16.25
76049;PMS7003;64967;50.234;19.224;2023-05-20T10:55:59;31.50;28.50;19.75
76049;PMS7003;64967;50.234;19.224;2023-05-20T10:58:26;28.00;27.00;19.50
76049;PMS7003;64967;50.234;19.224;2023-05-20T11:00:54;28.50;27.00;18.00
76049;PMS7003;64967;50.234;19.224;2023-05-20T11:03:22;29.00;26.25;19.75
76049;PMS7003;64967;50.234;19.224;2023-05-20T11:05:50;29.25;28.75;21.25
76049;PMS7003;64967;50.234;19.224;2023-05-20T11:08:17;25.50;22.25;17.25
76049;PMS7003;64967;50.234;19.224;2023-05-20T11:10:54;32.00;29.75;21.75
76049;PMS7003;64967;50.234;19.224;2023-05-20T11:13:22;37.00;30.00;21.00
76049;PMS7003;64967;50.234;19.224;2023-05-20T11:15:51;28.75;25.00;17.75
76049;PMS7003;64967;50.234;19.224;2023-05-20T11:18:18;25.75;23.75;18.00
76049;PMS7003;64967;50.234;19.224;2023-05-20T11:20:45;27.00;24.50;18.25
76049;PMS7003;64967;50.234;19.224;2023-05-20T11:23:13;31.25;27.00;18.25
76049;PMS7003;64967;50.234;19.224;2023-05-20T11:25:41;28.75;25.25;18.25
76049;PMS7003;64967;50.234;19.224;2023-05-20T11:28:11;26.00;26.00;19.75
76049;PMS7003;64967;50.234;19.224;2023-05-20T11:30:40;31.50;27.75;20.50
76049;PMS7003;64967;50.234;19.224;2023-05-20T11:33:10;27.00;26.00;17.25
76049;PMS7003;64967;50.234;19.224;2023-05-20T11:35:43;29.25;26.50;18.50
76049;PMS7003;64967;50.234;19.224;2023-05-20T11:38:11;25.75;24.75;17.00
76049;PMS7003;64967;50.234;19.224;2023-05-20T11:40:41;28.75;28.00;20.50
76049;PMS7003;64967;50.234;19.224;2023-05-20T11:43:16;32.00;28.75;20.50
76049;PMS7003;64967;50.234;19.224;2023-05-20T11:45:45;29.67;24.33;17.00
76049;PMS7003;64967;50.234;19.224;2023-05-20T11:48:14;29.33;26.67;19.67
76049;PMS7003;64967;50.234;19.224;2023-05-20T11:50:41;29.75;29.25;21.25
76049;PMS7003;64967;50.234;19.224;2023-05-20T11:53:10;35.00;31.25;22.50
76049;PMS7003;64967;50.234;19.224;2023-05-20T11:58:14;33.00;30.75;21.75
76049;PMS7003;64967;50.234;19.224;2023-05-20T12:00:42;33.00;29.00;19.75
76049;PMS7003;64967;50.234;19.224;2023-05-20T12:03:14;36.00;31.00;22.50
76049;PMS7003;64967;50.234;19.224;2023-05-20T12:05:42;29.75;27.50;20.75
76049;PMS7003;64967;50.234;19.224;2023-05-20T12:08:10;37.25;32.25;21.75
76049;PMS7003;64967;50.234;19.224;2023-05-20T12:10:37;34.25;30.00;20.50
76049;PMS7003;64967;50.234;19.224;2023-05-20T12:13:04;30.00;28.25;20.50
76049;PMS7003;64967;50.234;19.224;2023-05-20T12:15:34;28.67;26.67;19.67
76049;PMS7003;64967;50.234;19.224;2023-05-20T12:18:04;28.67;24.67;16.00
76049;PMS7003;64967;50.234;19.224;2023-05-20T12:20:31;23.33;23.33;17.33
76049;PMS7003;64967;50.234;19.224;2023-05-20T12:23:00;32.75;27.50;20.00
76049;PMS7003;64967;50.234;19.224;2023-05-20T12:25:27;32.50;29.75;21.00
76049;PMS7003;64967;50.234;19.224;2023-05-20T12:27:54;28.33;26.33;19.67
76049;PMS7003;64967;50.234;19.224;2023-05-20T12:30:22;26.00;24.33;16.67
76049;PMS7003;64967;50.234;19.224;2023-05-20T12:32:50;34.50;30.25;20.75
76049;PMS7003;64967;50.234;19.224;2023-05-20T12:35:23;22.00;21.33;15.67
76049;PMS7003;64967;50.234;19.224;2023-05-20T12:37:52;23.00;22.33;18.00
76049;PMS7003;64967;50.234;19.224;2023-05-20T12:40:19;28.00;25.67;19.00
76049;PMS7003;64967;50.234;19.224;2023-05-20T12:42:46;31.00;29.33;19.33
76049;PMS7003;64967;50.234;19.224;2023-05-20T12:45:13;26.00;24.00;17.67
76049;PMS7003;64967;50.234;19.224;2023-05-20T12:47:40;26.67;24.67;17.00
76049;PMS7003;64967;50.234;19.224;2023-05-20T12:50:07;28.00;24.00;16.00
76049;PMS7003;64967;50.234;19.224;2023-05-20T12:52:35;31.67;27.33;18.00
76049;PMS7003;64967;50.234;19.224;2023-05-20T12:55:02;25.67;24.67;19.67
76049;PMS7003;64967;50.234;19.224;2023-05-20T12:57:31;28.33;28.33;19.00
76049;PMS7003;64967;50.234;19.224;2023-05-20T12:59:58;29.33;27.67;20.00
76049;PMS7003;64967;50.234;19.224;2023-05-20T13:02:25;32.75;30.50;20.50
76049;PMS7003;64967;50.234;19.224;2023-05-20T13:04:52;30.75;29.00;20.00
76049;PMS7003;64967;50.234;19.224;2023-05-20T13:07:19;23.67;21.67;13.67
76049;PMS7003;64967;50.234;19.224;2023-05-20T13:09:46;24.67;24.00;17.33
76049;PMS7003;64967;50.234;19.224;2023-05-20T13:12:13;16.67;13.00;12.00
76049;PMS7003;64967;50.234;19.224;2023-05-20T13:14:40;25.33;24.33;18.00
76049;PMS7003;64967;50.234;19.224;2023-05-20T13:17:07;27.33;24.67;17.00
76049;PMS7003;64967;50.234;19.224;2023-05-20T13:19:34;21.00;20.33;17.00
76049;PMS7003;64967;50.234;19.224;2023-05-20T13:22:01;22.33;21.33;15.00
76049;PMS7003;64967;50.234;19.224;2023-05-20T13:24:28;27.67;25.33;19.00
76049;PMS7003;64967;50.234;19.224;2023-05-20T13:26:55;26.00;26.00;18.00
76049;PMS7003;64967;50.234;19.224;2023-05-20T13:29:22;28.00;27.33;19.33
76049;PMS7003;64967;50.234;19.224;2023-05-20T13:31:49;28.33;26.67;18.67
76049;PMS7003;64967;50.234;19.224;2023-05-20T13:34:16;28.00;20.67;16.33
76049;PMS7003;64967;50.234;19.224;2023-05-20T13:36:44;26.00;24.33;19.00
76049;PMS7003;64967;50.234;19.224;2023-05-20T13:39:15;24.33;24.33;17.67
76049;PMS7003;64967;50.234;19.224;2023-05-20T13:41:42;23.67;23.33;17.00
76049;PMS7003;64967;50.234;19.224;2023-05-20T13:44:09;27.33;26.00;19.00
76049;PMS7003;64967;50.234;19.224;2023-05-20T13:46:36;20.33;18.67;14.33
76049;PMS7003;64967;50.234;19.224;2023-05-20T13:49:03;28.33;26.67;18.00
76049;PMS7003;64967;50.234;19.224;2023-05-20T13:51:30;29.67;28.00;19.00
76049;PMS7003;64967;50.234;19.224;2023-05-20T13:53:57;26.00;22.33;16.33
76049;PMS7003;64967;50.234;19.224;2023-05-20T13:56:24;23.00;22.00;15.33
76049;PMS7003;64967;50.234;19.224;2023-05-20T13:58:51;17.67;16.67;12.67
76049;PMS7003;64967;50.234;19.224;2023-05-20T14:01:18;27.33;25.33;17.33